Time;durP1;ratioP1;P1;durP2;ratioP2;P2;SDS_P1;SDS_P2;PMS_P1;PMS_P2;Temp;Humidity;BMP_temperature;BMP_pressure;BME280_temperature;BME280_humidity;BME280_pressure;Samples;Min_cycle;Max_cycle;Signal;HPM_P1;HPM_P2
2022/08/15 00:01:04;;;;;;;5.35;4.85;;;;;;;17.41;100.00;93839.13;5051340;28;20600;-61
2022/08/15 00:03:34;;;;;;;7.78;5.13;;;;;;;17.37;100.00;93837.94;5051574;28;20201;-64
2022/08/15 00:06:04;;;;;;;5.93;4.70;;;;;;;17.32;100.00;93837.69;5051259;28;20197;-63
2022/08/15 00:08:32;;;;;;;5.35;4.85;;;;;;;17.29;100.00;93845.78;5049742;28;20581;-64
2022/08/15 00:11:05;;;;;;;6.38;5.38;;;;;;;17.27;100.00;93847.75;5051032;28;20217;-63
2022/08/15 00:13:31;;;;;;;5.82;5.05;;;;;;;17.23;100.00;93844.75;5050918;28;20198;-63
2022/08/15 00:15:56;;;;;;;7.90;5.97;;;;;;;17.18;100.00;93848.88;5033093;28;20678;-62
2022/08/15 00:18:24;;;;;;;6.70;6.10;;;;;;;17.10;100.00;93843.91;5051041;28;20688;-61
2022/08/15 00:20:50;;;;;;;6.95;5.88;;;;;;;17.07;100.00;93836.59;5050758;28;20243;-62
2022/08/15 00:23:19;;;;;;;7.95;6.50;;;;;;;17.06;100.00;93832.41;5050925;28;20178;-63
2022/08/15 00:25:48;;;;;;;8.05;6.53;;;;;;;17.07;100.00;93834.03;5050670;28;20193;-62
2022/08/15 00:28:14;;;;;;;11.00;6.38;;;;;;;17.02;100.00;93836.34;5032916;28;20190;-63
2022/08/15 00:30:43;;;;;;;6.88;6.22;;;;;;;17.03;100.00;93832.81;5050833;28;20201;-61
2022/08/15 00:33:09;;;;;;;8.02;6.60;;;;;;;17.00;100.00;93831.41;5050612;28;20189;-62
2022/08/15 00:35:39;;;;;;;7.85;6.55;;;;;;;17.01;100.00;93829.63;5033608;28;21172;-61
2022/08/15 00:38:13;;;;;;;8.27;6.85;;;;;;;17.01;100.00;93827.06;5050836;28;20200;-63
2022/08/15 00:43:33;;;;;;;7.75;6.93;;;;;;;17.01;100.00;93834.78;5051094;28;20737;-62
2022/08/15 00:46:00;;;;;;;7.95;7.15;;;;;;;17.00;100.00;93833.97;5051122;28;20645;-63
2022/08/15 00:48:44;;;;;;;9.00;7.10;;;;;;;17.03;100.00;93845.66;5050731;28;20202;-64
2022/08/15 00:51:19;;;;;;;10.57;7.72;;;;;;;16.98;100.00;93830.81;5050557;28;20189;-62
2022/08/15 00:53:55;;;;;;;10.98;8.02;;;;;;;16.98;100.00;93832.56;5050475;28;20216;-63
2022/08/15 00:56:26;;;;;;;8.85;7.60;;;;;;;16.98;100.00;93830.81;5050348;28;20252;-63
2022/08/15 00:58:52;;;;;;;9.48;8.23;;;;;;;16.99;100.00;93832.38;5050442;28;20233;-63
2022/08/15 01:01:18;;;;;;;10.85;8.07;;;;;;;16.93;100.00;93828.00;5032444;28;20726;-62
2022/08/15 01:03:47;;;;;;;9.30;8.30;;;;;;;16.96;100.00;93826.81;5050494;28;20212;-62
2022/08/15 01:06:13;;;;;;;8.95;8.05;;;;;;;17.04;100.00;93827.47;5032494;28;20189;-59
2022/08/15 01:08:44;;;;;;;9.13;8.00;;;;;;;17.10;100.00;93826.72;5050545;28;20258;-63
2022/08/15 01:11:15;;;;;;;9.57;7.95;;;;;;;17.04;100.00;93824.91;5050787;28;20193;-61
2022/08/15 01:13:41;;;;;;;9.55;8.35;;;;;;;17.14;100.00;93827.94;5050451;28;20209;-60
2022/08/15 01:16:07;;;;;;;9.32;8.05;;;;;;;17.14;100.00;93827.13;5050736;28;20582;-64
2022/08/15 01:18:33;;;;;;;9.27;7.88;;;;;;;17.17;100.00;93819.06;5050190;28;20217;-62
2022/08/15 01:21:04;;;;;;;9.40;8.38;;;;;;;17.20;100.00;93824.59;5050299;28;20302;-62
2022/08/15 01:24:00;;;;;;;10.27;7.90;;;;;;;17.26;100.00;93810.19;5050819;28;20205;-62
2022/08/15 01:26:27;;;;;;;8.27;7.45;;;;;;;17.37;100.00;93822.50;5035858;28;20642;-63
2022/08/15 01:28:55;;;;;;;9.65;8.43;;;;;;;17.41;100.00;93826.28;5035680;28;20262;-62
2022/08/15 01:31:22;;;;;;;9.15;7.72;;;;;;;17.41;100.00;93834.00;5053798;28;20573;-61
2022/08/15 01:33:51;;;;;;;8.32;7.50;;;;;;;17.42;100.00;93831.22;5053631;28;20256;-62
2022/08/15 01:36:18;;;;;;;9.75;8.30;;;;;;;17.31;100.00;93836.13;5053500;28;20269;-62
2022/08/15 01:38:56;;;;;;;9.55;8.55;;;;;;;17.29;100.00;93831.16;5035431;28;20213;-62
2022/08/15 01:41:28;;;;;;;8.88;7.97;;;;;;;17.39;100.00;93828.25;5053856;28;20330;-65
2022/08/15 01:44:17;;;;;;;8.68;7.72;;;;;;;17.36;100.00;93836.34;5053458;28;20209;-64
2022/08/15 01:46:53;;;;;;;9.35;7.82;;;;;;;17.32;100.00;93833.34;5053217;28;20232;-64
2022/08/15 01:49:35;;;;;;;11.48;8.40;;;;;;;17.36;100.00;93831.19;5035499;28;20351;-65
2022/08/15 01:52:03;;;;;;;9.55;8.52;;;;;;;17.13;100.00;93805.00;5035246;28;20269;-62
2022/08/15 01:54:36;;;;;;;10.40;8.75;;;;;;;17.24;100.00;93825.00;5053098;28;20205;-62
2022/08/15 01:57:03;;;;;;;10.13;9.13;;;;;;;17.23;100.00;93826.78;5053289;28;20659;-61
2022/08/15 01:59:28;;;;;;;9.63;8.63;;;;;;;17.22;100.00;93817.50;5035103;28;20312;-61
2022/08/15 02:02:00;;;;;;;10.50;9.50;;;;;;;17.17;100.00;93811.34;5053603;28;20344;-62
2022/08/15 02:04:31;;;;;;;9.93;8.93;;;;;;;17.25;100.00;93813.75;5053236;28;20205;-65
2022/08/15 02:07:01;;;;;;;9.65;8.30;;;;;;;17.47;100.00;93808.31;5053344;28;20185;-62
2022/08/15 02:09:28;;;;;;;10.02;8.90;;;;;;;17.47;100.00;93808.31;5052970;28;20261;-63
2022/08/15 02:11:56;;;;;;;9.60;8.52;;;;;;;17.39;100.00;93807.69;5053103;28;20215;-62
2022/08/15 02:14:22;;;;;;;9.00;8.10;;;;;;;17.56;100.00;93816.69;5052912;28;20225;-62
2022/08/15 02:16:48;;;;;;;9.15;8.23;;;;;;;17.70;100.00;93818.31;5053212;28;20194;-65
2022/08/15 02:19:15;;;;;;;9.20;8.30;;;;;;;17.69;100.00;93821.06;5035419;28;20220;-64
2022/08/15 02:21:45;;;;;;;9.82;8.55;;;;;;;17.54;100.00;93816.06;5052847;28;20212;-62
2022/08/15 02:24:15;;;;;;;12.18;9.32;;;;;;;17.55;100.00;93826.16;5052837;28;20671;-62
2022/08/15 02:26:40;;;;;;;9.52;8.57;;;;;;;17.57;100.00;93831.13;5052794;28;20245;-62
2022/08/15 02:29:06;;;;;;;9.57;8.57;;;;;;;17.62;100.00;93833.91;5052724;28;20780;-62
2022/08/15 02:31:32;;;;;;;10.18;9.13;;;;;;;17.65;100.00;93830.97;5052767;28;20577;-61
2022/08/15 02:34:01;;;;;;;8.70;7.93;;;;;;;17.81;100.00;93834.94;5034955;28;20209;-61
2022/08/15 02:36:29;;;;;;;9.63;8.65;;;;;;;17.72;100.00;93836.91;5052082;28;20189;-62
2022/08/15 02:38:58;;;;;;;11.25;8.80;;;;;;;17.54;100.00;93818.66;5059128;22;20236;-62
2022/08/15 02:41:34;;;;;;;10.25;9.15;;;;;;;17.49;100.00;93844.91;5052539;28;20210;-62
2022/08/15 02:44:01;;;;;;;11.02;9.00;;;;;;;17.32;100.00;93835.13;5053078;28;20243;-65
2022/08/15 02:46:29;;;;;;;11.10;9.93;;;;;;;17.27;100.00;93840.06;5052544;28;20625;-61
2022/08/15 02:48:58;;;;;;;11.32;10.15;;;;;;;17.27;100.00;93842.63;5053067;28;20240;-63
2022/08/15 02:51:25;;;;;;;10.15;9.15;;;;;;;17.25;100.00;93845.38;5052149;28;20197;-63
2022/08/15 02:53:52;;;;;;;11.07;9.75;;;;;;;17.21;100.00;93839.00;5052164;28;20214;-63
2022/08/15 02:56:22;;;;;;;10.98;9.80;;;;;;;17.16;100.00;93843.16;5051999;28;20185;-62
2022/08/15 02:58:49;;;;;;;11.35;9.82;;;;;;;17.00;100.00;93846.81;5034090;28;20216;-62
2022/08/15 03:01:16;;;;;;;11.32;10.13;;;;;;;17.04;100.00;93854.94;5052259;28;20764;-62
2022/08/15 03:03:44;;;;;;;11.73;10.50;;;;;;;16.95;100.00;93853.50;5052025;28;20206;-62
2022/08/15 03:06:13;;;;;;;14.50;10.25;;;;;;;16.92;100.00;93848.72;5051928;28;20264;-61
2022/08/15 03:08:40;;;;;;;12.30;10.20;;;;;;;16.93;100.00;93860.59;5052380;28;20216;-62
2022/08/15 03:11:07;;;;;;;12.50;11.20;;;;;;;16.84;100.00;93864.28;5033941;28;20254;-62
2022/08/15 03:13:33;;;;;;;14.32;11.45;;;;;;;16.84;100.00;93856.56;5051817;28;20201;-63
2022/08/15 03:16:00;;;;;;;14.02;11.25;;;;;;;16.79;100.00;93850.22;5034471;28;20189;-62
2022/08/15 03:18:29;;;;;;;16.02;11.63;;;;;;;16.76;100.00;93863.44;5051857;28;20206;-65
2022/08/15 03:20:57;;;;;;;14.95;11.95;;;;;;;16.70;100.00;93866.72;5051766;28;20251;-64
2022/08/15 03:23:25;;;;;;;18.75;13.38;;;;;;;16.70;100.00;93877.00;5051497;28;20181;-64
2022/08/15 03:25:53;;;;;;;17.15;13.60;;;;;;;16.68;100.00;93876.38;5033906;28;20205;-62
2022/08/15 03:28:22;;;;;;;16.83;12.27;;;;;;;16.68;100.00;93870.47;5052003;28;20181;-64
2022/08/15 03:30:48;;;;;;;16.48;13.45;;;;;;;16.71;100.00;93878.59;5051719;28;20197;-63
2022/08/15 03:33:15;;;;;;;15.73;13.20;;;;;;;16.74;100.00;93883.38;5051665;28;20197;-63
2022/08/15 03:35:49;;;;;;;17.02;13.77;;;;;;;16.71;100.00;93891.44;5051869;28;20192;-62
2022/08/15 03:38:15;;;;;;;15.10;12.95;;;;;;;16.62;100.00;93884.81;5051920;28;20671;-60
2022/08/15 03:40:43;;;;;;;16.02;13.50;;;;;;;16.59;100.00;93886.97;5051611;28;20288;-60
2022/08/15 03:43:27;;;;;;;16.90;13.95;;;;;;;16.59;100.00;93889.53;5051605;28;20566;-60
2022/08/15 03:46:02;;;;;;;17.02;13.38;;;;;;;16.64;100.00;93893.13;5052259;28;20189;-61
2022/08/15 03:48:49;;;;;;;16.90;13.40;;;;;;;16.65;100.00;93884.47;5050061;28;20200;-61
2022/08/15 03:51:18;;;;;;;18.02;14.48;;;;;;;16.66;100.00;93886.03;5052339;28;20221;-63
2022/08/15 03:53:47;;;;;;;16.42;13.43;;;;;;;16.79;100.00;93885.38;5052014;28;20589;-60
2022/08/15 03:56:16;;;;;;;18.50;14.98;;;;;;;16.81;100.00;93890.34;5052251;28;20204;-63
2022/08/15 03:58:42;;;;;;;19.15;16.13;;;;;;;16.78;100.00;93899.19;5052800;28;20197;-62
2022/08/15 04:01:17;;;;;;;17.98;15.43;;;;;;;16.85;100.00;93894.13;5052236;28;20253;-60
2022/08/15 04:03:47;;;;;;;17.75;15.40;;;;;;;16.87;100.00;93892.16;5052102;28;20200;-61
2022/08/15 04:06:16;;;;;;;17.35;15.48;;;;;;;16.90;100.00;93902.03;5034857;28;20243;-60
2022/08/15 04:08:45;;;;;;;19.65;14.88;;;;;;;17.09;100.00;93907.31;5051985;28;20216;-60
2022/08/15 04:11:11;;;;;;;17.50;14.95;;;;;;;17.60;100.00;93905.28;5051588;28;20209;-61
2022/08/15 04:13:39;;;;;;;20.15;14.70;;;;;;;17.92;100.00;93902.03;5052023;28;20829;-61
2022/08/15 04:16:06;;;;;;;16.17;13.88;;;;;;;18.46;100.00;93907.19;5051667;28;20228;-65
2022/08/15 04:18:32;;;;;;;18.60;15.85;;;;;;;18.49;100.00;93918.84;5051768;28;20738;-61
2022/08/15 04:21:01;;;;;;;14.52;13.00;;;;;;;18.80;100.00;93921.66;5051269;28;20221;-63
2022/08/15 04:23:27;;;;;;;17.65;15.13;;;;;;;18.68;100.00;93926.63;5051215;28;20228;-62
2022/08/15 04:25:53;;;;;;;16.52;14.77;;;;;;;18.91;100.00;93915.91;5051965;28;20192;-61
2022/08/15 04:28:22;;;;;;;16.98;14.52;;;;;;;19.05;100.00;93944.06;5051482;28;20185;-65
2022/08/15 04:30:49;;;;;;;18.52;14.77;;;;;;;19.10;100.00;93938.31;5051249;28;20219;-64
2022/08/15 04:33:23;;;;;;;17.67;14.57;;;;;;;19.32;100.00;93933.72;5050654;28;20186;-65
2022/08/15 04:35:58;;;;;;;18.17;15.00;;;;;;;19.39;100.00;93912.16;5050774;28;20190;-64
2022/08/15 04:38:24;;;;;;;17.63;15.73;;;;;;;19.24;100.00;93956.16;5050445;28;20236;-61
2022/08/15 04:40:50;;;;;;;16.52;13.82;;;;;;;19.25;100.00;93902.78;5050598;28;20267;-60
2022/08/15 04:43:18;;;;;;;18.83;16.80;;;;;;;19.20;100.00;93918.09;5050471;28;20659;-61
2022/08/15 04:45:45;;;;;;;18.00;15.52;;;;;;;19.45;100.00;93875.25;5050298;28;20268;-61
2022/08/15 04:48:14;;;;;;;18.48;16.17;;;;;;;19.58;100.00;93890.66;5050680;28;20637;-62
2022/08/15 04:50:41;;;;;;;21.13;17.38;;;;;;;19.56;100.00;93915.06;5050619;28;20202;-61
2022/08/15 04:53:07;;;;;;;19.27;17.20;;;;;;;19.91;100.00;93914.56;5050134;28;20194;-62
2022/08/15 04:55:35;;;;;;;36.67;33.20;;;;;;;19.96;100.00;93925.06;5032301;28;20189;-64
2022/08/15 04:58:01;;;;;;;33.80;30.45;;;;;;;20.20;100.00;93951.97;5032767;28;20247;-64
2022/08/15 05:00:30;;;;;;;27.17;24.38;;;;;;;20.59;100.00;93971.66;5035331;28;20296;-61
2022/08/15 05:03:10;;;;;;;21.65;19.35;;;;;;;20.41;100.00;93968.97;5052483;28;20189;-61
2022/08/15 05:05:42;;;;;;;23.40;17.38;;;;;;;20.63;100.00;93931.50;5054368;28;20243;-61
2022/08/15 05:08:08;;;;;;;20.17;17.95;;;;;;;20.55;100.00;93968.72;5053427;28;20198;-61
2022/08/15 05:10:35;;;;;;;23.42;18.95;;;;;;;20.59;100.00;93977.63;5035887;28;20726;-62
2022/08/15 05:13:10;;;;;;;22.75;19.15;;;;;;;20.62;100.00;93955.75;5035635;28;20244;-61
2022/08/15 05:15:36;;;;;;;23.05;18.63;;;;;;;20.78;100.00;93955.25;5053885;28;20185;-63
2022/08/15 05:18:02;;;;;;;21.95;18.75;;;;;;;20.53;100.00;93967.31;5053656;28;20201;-61
2022/08/15 05:20:27;;;;;;;23.40;19.33;;;;;;;20.67;100.00;93930.09;5053375;28;20256;-62
2022/08/15 05:23:00;;;;;;;21.98;19.60;;;;;;;20.72;100.00;93919.94;5053491;28;20197;-62
2022/08/15 05:25:27;;;;;;;26.17;18.73;;;;;;;21.01;100.00;93944.38;5053664;28;20237;-62
2022/08/15 05:27:53;;;;;;;24.45;20.23;;;;;;;20.96;100.00;93960.50;5053453;28;20255;-62
2022/08/15 05:30:20;;;;;;;25.58;19.20;;;;;;;20.54;100.00;93953.44;5035360;28;20217;-62
2022/08/15 05:32:46;;;;;;;22.20;19.63;;;;;;;20.69;100.00;93944.38;5051921;28;20644;-62
2022/08/15 05:35:11;;;;;;;25.15;19.40;;;;;;;20.83;100.00;93958.78;5053428;28;20331;-62
2022/08/15 05:37:37;;;;;;;23.65;20.25;;;;;;;20.41;100.00;93914.75;5053063;28;20678;-62
2022/08/15 05:40:06;;;;;;;21.13;18.35;;;;;;;20.82;100.00;93938.34;5035347;28;20213;-65
2022/08/15 05:43:02;;;;;;;25.08;20.45;;;;;;;20.28;100.00;93920.78;5052834;28;20181;-62
2022/08/15 05:45:37;;;;;;;23.92;20.00;;;;;;;20.08;100.00;93938.91;5045595;28;20263;-62
2022/08/15 05:48:13;;;;;;;24.42;19.70;;;;;;;20.14;100.00;93892.66;5052386;28;20205;-61
2022/08/15 05:51:15;;;;;;;22.88;19.85;;;;;;;20.34;100.00;93909.63;5053118;28;20201;-61
2022/08/15 05:54:22;;;;;;;26.13;20.35;;;;;;;20.60;100.00;93947.44;5011278;28;20593;-63
2022/08/15 05:57:17;;;;;;;21.75;18.33;;;;;;;20.68;100.00;93918.78;5052810;28;20185;-61
2022/08/15 05:59:50;;;;;;;24.45;19.00;;;;;;;21.11;100.00;93950.66;5035060;28;20241;-64
2022/08/15 06:02:28;;;;;;;23.50;18.70;;;;;;;21.80;100.00;93994.44;5052958;28;20288;-62
2022/08/15 06:05:10;;;;;;;18.00;16.08;;;;;;;22.19;100.00;94026.91;5052909;28;20205;-63
2022/08/15 06:07:38;;;;;;;17.48;15.52;;;;;;;22.50;100.00;94060.47;5053016;28;20725;-63
2022/08/15 06:10:25;;;;;;;17.75;14.30;;;;;;;22.72;100.00;94066.81;5052926;28;20212;-65
2022/08/15 06:12:57;;;;;;;16.13;13.77;;;;;;;22.97;100.00;94088.19;5035374;28;20200;-60
2022/08/15 06:15:33;;;;;;;17.95;13.23;;;;;;;22.99;100.00;94083.59;5051552;28;20338;-61
2022/08/15 06:18:04;;;;;;;22.17;14.27;;;;;;;23.11;100.00;93946.19;5052598;28;20197;-63
2022/08/15 06:20:47;;;;;;;17.10;13.10;;;;;;;23.24;100.00;93993.47;5052845;28;20584;-60
2022/08/15 06:23:34;;;;;;;18.77;15.23;;;;;;;23.02;100.00;93989.00;5052543;28;20189;-63
2022/08/15 06:25:59;;;;;;;21.77;15.30;;;;;;;22.85;100.00;93985.47;5052783;28;20193;-61
2022/08/15 06:28:39;;;;;;;20.80;15.77;;;;;;;22.13;100.00;94030.38;5052380;28;20201;-61
2022/08/15 06:31:24;;;;;;;19.20;16.30;;;;;;;22.06;100.00;93895.03;5052643;28;20196;-61
2022/08/15 06:34:33;;;;;;;19.33;17.00;;;;;;;21.18;100.00;93971.31;5052665;28;20209;-62
2022/08/15 06:37:06;;;;;;;19.15;17.10;;;;;;;21.68;100.00;93913.34;5052171;28;20659;-61
2022/08/15 06:39:38;;;;;;;21.23;16.67;;;;;;;21.89;100.00;93943.22;5052299;28;20209;-61
2022/08/15 06:42:18;;;;;;;21.27;18.58;;;;;;;22.05;100.00;93974.50;5052024;28;20259;-62
2022/08/15 06:44:49;;;;;;;27.92;18.17;;;;;;;21.94;100.00;94002.91;5034739;28;20673;-61
2022/08/15 06:47:16;;;;;;;20.35;17.65;;;;;;;21.99;100.00;93974.56;5052347;28;20185;-61
2022/08/15 06:49:49;;;;;;;21.75;18.92;;;;;;;21.93;100.00;93994.34;5052854;28;20259;-61
2022/08/15 06:52:16;;;;;;;21.95;18.38;;;;;;;22.19;100.00;93996.66;5052115;28;20178;-59
2022/08/15 06:54:41;;;;;;;20.75;18.13;;;;;;;22.23;100.00;94017.72;5052363;28;20215;-59
2022/08/15 06:57:21;;;;;;;22.25;18.02;;;;;;;22.08;100.00;94064.66;5052386;28;20186;-62
2022/08/15 07:00:14;;;;;;;21.13;17.80;;;;;;;22.15;100.00;94029.16;5052211;28;20755;-63
2022/08/15 07:02:50;;;;;;;25.77;20.75;;;;;;;22.02;100.00;94055.16;5034466;28;20194;-62
2022/08/15 07:05:41;;;;;;;23.27;20.10;;;;;;;21.40;100.00;94019.88;5052167;28;20278;-62
2022/08/15 07:08:26;;;;;;;22.08;19.65;;;;;;;21.41;100.00;94021.44;5051862;28;20289;-60
2022/08/15 07:10:59;;;;;;;26.27;21.75;;;;;;;21.38;100.00;94027.03;5033992;28;20194;-59
2022/08/15 07:13:37;;;;;;;24.38;21.40;;;;;;;21.04;100.00;93962.88;5033735;28;20263;-61
2022/08/15 07:16:12;;;;;;;22.88;20.42;;;;;;;21.16;100.00;93994.78;5051785;28;20248;-61
2022/08/15 07:18:46;;;;;;;23.15;20.52;;;;;;;21.20;100.00;93977.06;5051774;28;20734;-61
2022/08/15 07:21:16;;;;;;;25.73;21.48;;;;;;;21.26;100.00;93987.34;5051076;28;20695;-61
2022/08/15 07:24:09;;;;;;;24.15;20.63;;;;;;;21.67;100.00;93995.34;5051577;28;20193;-60
2022/08/15 07:26:48;;;;;;;24.35;20.55;;;;;;;21.75;100.00;94026.13;5051597;28;20197;-61
2022/08/15 07:29:28;;;;;;;23.42;21.00;;;;;;;22.08;100.00;94032.81;5051692;28;20201;-61
2022/08/15 07:32:20;;;;;;;24.20;21.35;;;;;;;22.43;100.00;94036.41;5051531;28;20239;-61
2022/08/15 07:35:20;;;;;;;23.20;20.65;;;;;;;22.77;100.00;94060.94;5033506;28;20209;-61
2022/08/15 07:37:56;;;;;;;23.65;20.48;;;;;;;23.25;100.00;94123.97;5051158;28;20201;-63
2022/08/15 07:40:32;;;;;;;23.48;20.67;;;;;;;23.22;100.00;94124.41;5051949;28;20691;-62
2022/08/15 07:43:01;;;;;;;24.20;21.60;;;;;;;23.02;100.00;94131.63;5051571;28;20184;-61
2022/08/15 07:45:36;;;;;;;23.67;21.17;;;;;;;23.21;100.00;94131.38;5051523;28;20232;-62
2022/08/15 07:48:17;;;;;;;25.83;21.45;;;;;;;22.93;100.00;94107.81;5051313;28;20203;-60
2022/08/15 07:50:45;;;;;;;24.83;21.08;;;;;;;22.94;100.00;94122.38;5051316;28;20659;-61
2022/08/15 07:53:23;;;;;;;23.88;20.88;;;;;;;23.04;100.00;94101.88;5051122;28;20201;-61
2022/08/15 07:56:12;;;;;;;23.25;20.85;;;;;;;23.45;100.00;94134.09;5051254;28;20193;-62
2022/08/15 07:58:41;;;;;;;23.42;20.75;;;;;;;23.54;100.00;94120.59;5051141;28;20209;-63
2022/08/15 08:01:24;;;;;;;22.45;20.00;;;;;;;23.49;100.00;94124.88;5051201;28;20216;-61
2022/08/15 08:04:00;;;;;;;22.65;20.10;;;;;;;23.06;100.00;94115.44;5051074;28;20228;-63
2022/08/15 08:06:36;;;;;;;22.88;20.45;;;;;;;22.98;100.00;94101.97;5051018;28;20246;-63
2022/08/15 08:09:20;;;;;;;22.40;19.58;;;;;;;23.45;100.00;94126.31;5051187;28;20205;-63
2022/08/15 08:11:54;;;;;;;22.23;19.83;;;;;;;23.02;100.00;94113.47;5050969;28;20232;-63
2022/08/15 08:15:02;;;;;;;22.15;19.23;;;;;;;23.05;100.00;94119.00;5049685;28;20243;-62
2022/08/15 08:17:39;;;;;;;22.25;19.90;;;;;;;23.01;100.00;94091.13;5012374;28;20209;-62
2022/08/15 08:20:39;;;;;;;22.95;19.88;;;;;;;22.74;100.00;94089.91;5050929;28;20209;-61
2022/08/15 08:23:07;;;;;;;23.45;19.70;;;;;;;22.48;100.00;94065.84;4979780;28;20230;-62
2022/08/15 08:26:06;;;;;;;22.80;19.45;;;;;;;22.41;100.00;94072.09;5051272;28;20197;-62
2022/08/15 08:28:46;;;;;;;25.45;19.75;;;;;;;22.30;100.00;94039.94;5050894;28;20228;-62
2022/08/15 08:31:26;;;;;;;21.30;19.10;;;;;;;22.63;100.00;94067.28;5050942;28;20276;-61
2022/08/15 08:34:05;;;;;;;21.48;19.13;;;;;;;22.60;100.00;94084.09;5033391;28;20270;-61
2022/08/15 08:36:46;;;;;;;21.27;19.02;;;;;;;22.27;100.00;94039.59;5054300;28;20217;-61
2022/08/15 08:39:26;;;;;;;21.73;19.42;;;;;;;22.46;100.00;94061.91;5054343;28;20201;-59
2022/08/15 08:42:04;;;;;;;22.42;18.58;;;;;;;22.93;100.00;94081.88;5054173;28;20227;-60
2022/08/15 08:44:35;;;;;;;20.85;18.15;;;;;;;23.05;100.00;94115.63;5053942;28;20205;-61
2022/08/15 08:47:13;;;;;;;19.80;17.70;;;;;;;23.16;100.00;94097.53;5054087;28;20197;-59
2022/08/15 08:49:59;;;;;;;19.98;17.88;;;;;;;23.55;100.00;94095.44;5054282;28;20204;-59
2022/08/15 08:52:45;;;;;;;20.80;17.50;;;;;;;23.96;100.00;94116.13;5053831;28;20198;-60
2022/08/15 08:55:18;;;;;;;20.80;18.55;;;;;;;23.71;100.00;94141.50;5054301;28;20217;-60
2022/08/15 08:57:58;;;;;;;21.55;19.13;;;;;;;23.59;100.00;94127.72;5053906;28;20201;-62
2022/08/15 09:00:31;;;;;;;19.48;17.48;;;;;;;23.86;100.00;94113.31;5054253;28;20217;-63
2022/08/15 09:03:10;;;;;;;19.45;17.13;;;;;;;24.16;100.00;94108.84;5054162;28;20181;-63
2022/08/15 09:05:41;;;;;;;19.30;17.33;;;;;;;24.27;98.09;94177.41;5035845;28;20204;-63
2022/08/15 09:08:16;;;;;;;20.08;17.77;;;;;;;24.15;99.50;94141.03;5053740;28;20194;-63
2022/08/15 09:10:47;;;;;;;20.50;18.30;;;;;;;23.92;99.27;94151.34;5054160;28;20180;-61
2022/08/15 09:16:21;;;;;;;19.92;17.75;;;;;;;23.52;98.92;94134.78;5053946;28;20208;-61
2022/08/15 09:19:10;;;;;;;22.55;19.10;;;;;;;23.64;98.74;94133.00;5053471;28;20317;-61
2022/08/15 09:21:37;;;;;;;21.15;18.88;;;;;;;23.72;99.29;94122.31;5053808;28;20690;-63
2022/08/15 09:24:04;;;;;;;19.80;17.58;;;;;;;23.83;97.25;94152.72;5053734;28;20209;-63
2022/08/15 09:26:40;;;;;;;21.20;18.02;;;;;;;24.04;96.38;94168.56;5053508;28;20182;-64
2022/08/15 09:29:18;;;;;;;20.20;17.60;;;;;;;24.01;95.89;94169.00;5053412;28;20216;-64
2022/08/15 09:32:10;;;;;;;22.05;17.95;;;;;;;23.86;95.01;94178.22;5053296;28;20228;-61
2022/08/15 09:34:50;;;;;;;19.60;17.58;;;;;;;23.75;96.37;94155.63;5053536;28;20655;-61
2022/08/15 09:37:41;;;;;;;22.40;17.85;;;;;;;24.15;96.69;94146.22;5053247;28;20189;-65
2022/08/15 09:40:16;;;;;;;19.77;17.23;;;;;;;24.67;96.27;94162.72;5007398;28;20609;-63
2022/08/15 09:42:56;;;;;;;19.65;17.42;;;;;;;24.77;95.08;94187.16;5053343;28;20239;-62
2022/08/15 09:45:58;;;;;;;19.52;17.58;;;;;;;24.61;94.44;94187.03;5052750;28;20209;-63
2022/08/15 09:48:48;;;;;;;20.70;17.27;;;;;;;24.22;95.60;94157.28;5051766;28;20209;-65
2022/08/15 09:51:45;;;;;;;18.92;15.80;;;;;;;24.02;94.81;94173.19;5052776;28;20174;-64
2022/08/15 09:54:22;;;;;;;17.08;15.45;;;;;;;24.31;93.94;94181.13;5053151;28;20237;-66
2022/08/15 09:56:48;;;;;;;17.77;15.98;;;;;;;24.77;92.71;94212.38;5053105;28;20243;-63
2022/08/15 09:59:25;;;;;;;16.58;14.98;;;;;;;24.90;92.04;94205.13;5053265;28;20288;-64
2022/08/15 10:02:00;;;;;;;16.77;15.07;;;;;;;24.86;88.47;94219.63;5052921;28;20687;-64
2022/08/15 10:05:19;;;;;;;17.55;15.45;;;;;;;25.38;86.24;94237.84;5035103;28;20220;-64
2022/08/15 10:08:01;;;;;;;16.33;14.20;;;;;;;25.67;77.06;94257.72;5052961;28;20278;-64
2022/08/15 10:10:32;;;;;;;16.45;14.90;;;;;;;26.19;74.57;94259.22;5053206;28;20239;-62
2022/08/15 10:13:07;;;;;;;17.45;15.75;;;;;;;26.41;73.21;94277.56;5052620;28;20205;-61
2022/08/15 10:15:45;;;;;;;15.57;13.98;;;;;;;26.53;73.86;94229.53;5052853;28;20205;-65
2022/08/15 10:18:22;;;;;;;16.25;14.65;;;;;;;26.80;69.26;94294.91;5052796;28;20276;-64
2022/08/15 10:21:21;;;;;;;21.40;14.63;;;;;;;26.86;68.97;94280.13;5052600;28;20222;-63
2022/08/15 10:23:49;;;;;;;17.02;14.50;;;;;;;26.55;69.12;94256.16;5052609;28;20216;-64
2022/08/15 10:26:28;;;;;;;14.80;13.43;;;;;;;26.21;69.27;94240.72;5052455;28;20198;-64
2022/08/15 10:29:00;;;;;;;16.20;14.50;;;;;;;26.14;71.23;94201.78;5052714;28;20205;-61
2022/08/15 10:31:29;;;;;;;15.65;14.13;;;;;;;26.08;71.45;94176.66;5052488;28;20193;-61
2022/08/15 10:34:00;;;;;;;16.48;14.77;;;;;;;26.58;70.33;94205.34;5052522;28;20216;-62
2022/08/15 10:36:36;;;;;;;14.70;13.18;;;;;;;26.32;69.71;94204.16;5052442;28;20197;-61
2022/08/15 10:39:07;;;;;;;15.27;13.88;;;;;;;27.02;69.15;94237.53;5052499;28;20729;-63
2022/08/15 10:41:45;;;;;;;15.02;13.43;;;;;;;26.56;66.70;94280.41;5052211;28;20236;-62
2022/08/15 10:44:30;;;;;;;12.93;11.77;;;;;;;26.80;66.49;94270.63;5052504;28;20244;-63
2022/08/15 10:47:15;;;;;;;15.68;11.55;;;;;;;26.65;66.02;94265.94;5052299;28;20239;-64
2022/08/15 10:50:21;;;;;;;12.40;11.20;;;;;;;27.08;66.82;94234.78;5051965;28;20272;-64
2022/08/15 10:53:07;;;;;;;12.40;9.98;;;;;;;27.47;63.70;94293.00;5058274;22;20237;-61
2022/08/15 10:55:39;;;;;;;11.63;10.50;;;;;;;27.63;62.58;94310.44;5032132;28;20197;-64
2022/08/15 10:58:09;;;;;;;15.48;11.18;;;;;;;27.78;61.93;94310.63;5031270;28;20206;-64
2022/08/15 11:00:51;;;;;;;11.27;10.18;;;;;;;28.62;60.54;94330.13;5031964;28;20218;-65
2022/08/15 11:03:40;;;;;;;11.38;10.32;;;;;;;29.23;60.25;94312.28;5032016;28;20217;-64
2022/08/15 11:06:09;;;;;;;11.15;10.13;;;;;;;29.09;58.32;94351.16;5031993;28;20214;-65
2022/08/15 11:08:53;;;;;;;12.52;11.43;;;;;;;28.54;57.81;94353.28;5014417;28;20696;-64
2022/08/15 11:11:25;;;;;;;11.48;10.27;;;;;;;28.55;58.40;94313.00;5032033;28;20187;-66
2022/08/15 11:13:54;;;;;;;10.35;9.38;;;;;;;28.27;56.99;94345.44;5014447;28;20218;-63
2022/08/15 11:16:31;;;;;;;11.40;9.98;;;;;;;27.94;57.76;94308.97;5031663;28;20194;-65
2022/08/15 11:18:59;;;;;;;11.13;9.68;;;;;;;27.93;57.83;94299.56;5032791;28;20214;-62
2022/08/15 11:21:49;;;;;;;11.10;10.10;;;;;;;27.60;59.70;94240.38;5013882;28;20714;-65
2022/08/15 11:24:34;;;;;;;10.98;9.38;;;;;;;28.19;61.11;94210.72;5017367;28;20257;-62
2022/08/15 11:27:21;;;;;;;10.73;9.27;;;;;;;28.19;58.80;94278.69;5031792;28;20186;-62
2022/08/15 11:29:49;;;;;;;10.80;9.23;;;;;;;28.71;57.28;94301.66;5031499;28;20214;-64
2022/08/15 11:32:26;;;;;;;9.90;9.00;;;;;;;28.30;55.97;94334.47;5031636;28;20194;-63
2022/08/15 11:34:53;;;;;;;10.45;9.43;;;;;;;28.46;56.72;94304.03;5031773;28;20637;-65
2022/08/15 11:37:21;;;;;;;10.70;9.07;;;;;;;29.21;55.72;94320.38;5013806;28;20194;-65
2022/08/15 11:40:04;;;;;;;10.77;9.68;;;;;;;28.90;55.74;94316.75;5013464;28;20216;-64
2022/08/15 11:42:38;;;;;;;9.50;8.52;;;;;;;28.26;54.73;94330.00;5013712;28;20290;-62
2022/08/15 11:45:14;;;;;;;9.88;8.77;;;;;;;28.58;54.48;94338.72;5031484;28;20213;-62
2022/08/15 11:47:46;;;;;;;9.63;8.55;;;;;;;28.56;54.38;94333.72;5031720;28;20204;-66
2022/08/15 11:50:28;;;;;;;9.68;8.73;;;;;;;28.38;53.75;94336.69;5031466;28;20280;-65
2022/08/15 11:53:01;;;;;;;10.38;8.73;;;;;;;28.56;54.76;94319.84;5031575;28;20280;-65